Time;durP1;ratioP1;P1;durP2;ratioP2;P2;SDS_P1;SDS_P2;PMS_P1;PMS_P2;Temp;Humidity;BMP_temperature;BMP_pressure;BME280_temperature;BME280_humidity;BME280_pressure;Samples;Min_cycle;Max_cycle;Signal;HPM_P1;HPM_P2
2023/05/31 00:00:20;;;;;;;5.05;3.60;;;10.30;99.90;;;;;;5029607;28;20029;-79
2023/05/31 00:02:46;;;;;;;8.55;3.65;;;10.30;99.90;;;;;;5046159;28;20030;-79
2023/05/31 00:05:11;;;;;;;4.90;3.42;;;10.20;99.90;;;;;;5046440;28;20052;-79
2023/05/31 00:07:37;;;;;;;7.10;3.25;;;10.20;99.90;;;;;;5046593;28;20099;-79
2023/05/31 00:10:03;;;;;;;6.20;3.22;;;10.20;99.90;;;;;;5046357;28;20408;-79
2023/05/31 00:12:28;;;;;;;5.43;3.45;;;10.20;99.90;;;;;;5029608;28;20561;-80
2023/05/31 00:14:54;;;;;;;6.80;3.28;;;10.20;99.90;;;;;;5030032;28;20048;-79
2023/05/31 00:17:20;;;;;;;4.97;2.95;;;10.20;99.90;;;;;;5046302;28;20082;-79
2023/05/31 00:19:45;;;;;;;6.00;3.70;;;10.10;99.90;;;;;;5030209;28;20037;-80
2023/05/31 00:22:11;;;;;;;4.68;3.10;;;10.10;99.90;;;;;;5046764;28;20040;-79
2023/05/31 00:24:36;;;;;;;5.03;3.10;;;10.10;99.90;;;;;;5029822;28;20037;-80
2023/05/31 00:27:02;;;;;;;5.80;3.33;;;10.10;99.90;;;;;;5013228;28;20136;-80
2023/05/31 00:29:28;;;;;;;7.00;3.70;;;10.10;99.90;;;;;;5046350;28;20076;-79
2023/05/31 00:31:54;;;;;;;6.63;3.42;;;10.10;99.90;;;;;;5029079;28;20050;-79
2023/05/31 00:34:20;;;;;;;6.40;3.38;;;10.00;99.90;;;;;;5029594;28;20051;-79
2023/05/31 00:36:45;;;;;;;7.68;3.42;;;10.00;99.90;;;;;;5029604;28;20069;-79
2023/05/31 00:39:11;;;;;;;4.40;3.10;;;10.00;99.90;;;;;;5030228;28;20048;-80
2023/05/31 00:41:36;;;;;;;7.28;3.58;;;10.00;99.90;;;;;;5046157;28;20037;-79
2023/05/31 00:44:02;;;;;;;5.18;3.28;;;9.80;99.90;;;;;;5029931;28;20048;-79
2023/05/31 00:46:34;;;;;;;6.45;2.92;;;9.80;99.90;;;;;;5031740;28;20037;-79
2023/05/31 00:49:00;;;;;;;8.25;4.15;;;9.80;99.90;;;;;;5050000;28;20045;-79
2023/05/31 00:51:27;;;;;;;5.60;3.13;;;9.80;99.90;;;;;;5033114;28;20037;-78
2023/05/31 00:53:54;;;;;;;5.20;3.17;;;9.80;99.90;;;;;;5033247;28;20041;-79
2023/05/31 00:56:21;;;;;;;5.13;3.13;;;9.70;99.90;;;;;;5009068;28;20040;-79
2023/05/31 00:58:48;;;;;;;5.75;3.38;;;9.70;99.90;;;;;;5033120;28;20041;-79
2023/05/31 01:01:14;;;;;;;4.38;3.10;;;9.70;99.90;;;;;;5032870;28;20558;-79
2023/05/31 01:03:43;;;;;;;4.82;3.00;;;9.70;99.90;;;;;;5050023;28;20074;-80
2023/05/31 01:06:10;;;;;;;6.55;3.33;;;9.60;99.90;;;;;;5033145;28;20091;-79
2023/05/31 01:08:37;;;;;;;5.82;3.00;;;9.50;99.90;;;;;;5033056;28;20052;-80
2023/05/31 01:11:27;;;;;;;6.13;3.20;;;9.50;99.90;;;;;;5032677;28;20128;-80
2023/05/31 01:14:09;;;;;;;6.55;3.30;;;9.50;99.90;;;;;;5032840;28;20061;-80
2023/05/31 01:16:47;;;;;;;5.32;3.40;;;9.40;99.90;;;;;;5011381;28;20424;-80
2023/05/31 01:19:24;;;;;;;8.63;3.60;;;9.40;99.90;;;;;;5050184;28;20046;-80
2023/05/31 01:22:15;;;;;;;6.78;3.78;;;9.40;99.90;;;;;;5029507;28;20407;-79
2023/05/31 01:25:09;;;;;;;6.57;3.25;;;9.40;99.90;;;;;;5028302;28;20572;-80
2023/05/31 01:27:36;;;;;;;6.97;3.55;;;9.40;99.90;;;;;;5050199;28;20037;-80
2023/05/31 01:30:04;;;;;;;5.43;3.40;;;9.40;99.90;;;;;;5050374;28;20055;-79
2023/05/31 01:32:30;;;;;;;5.45;3.33;;;9.40;99.90;;;;;;5032425;28;20508;-79
2023/05/31 01:34:56;;;;;;;5.40;3.35;;;9.30;99.90;;;;;;5049446;28;20084;-79
2023/05/31 01:37:21;;;;;;;5.20;3.33;;;9.30;99.90;;;;;;5032542;28;20069;-79
2023/05/31 01:39:48;;;;;;;5.43;3.45;;;9.30;99.90;;;;;;5049475;28;20409;-80
2023/05/31 01:42:16;;;;;;;6.72;3.72;;;9.30;99.90;;;;;;5049308;28;20524;-80
2023/05/31 01:44:42;;;;;;;7.72;3.67;;;9.20;99.90;;;;;;5032663;28;20057;-79
2023/05/31 01:47:08;;;;;;;5.05;3.38;;;9.30;99.90;;;;;;5032668;28;20040;-80
2023/05/31 01:49:37;;;;;;;4.00;2.65;;;9.30;99.90;;;;;;5033073;28;20044;-80
2023/05/31 01:52:05;;;;;;;5.72;2.65;;;9.30;99.90;;;;;;5032728;28;20529;-79
2023/05/31 01:54:31;;;;;;;4.60;2.88;;;9.20;99.90;;;;;;5033169;28;20045;-80
2023/05/31 01:56:58;;;;;;;5.15;2.58;;;9.20;99.90;;;;;;5048709;28;20052;-79
2023/05/31 01:59:25;;;;;;;5.40;2.97;;;9.20;99.90;;;;;;5033049;28;20087;-79
2023/05/31 02:01:51;;;;;;;4.57;2.80;;;9.20;99.90;;;;;;5032910;28;20041;-80
2023/05/31 02:04:19;;;;;;;4.88;2.83;;;9.20;99.90;;;;;;5032791;28;20140;-80
2023/05/31 02:06:44;;;;;;;5.28;3.60;;;9.20;99.90;;;;;;5032654;28;20511;-80
2023/05/31 02:09:10;;;;;;;5.03;2.88;;;9.10;99.90;;;;;;5049313;28;20041;-79
2023/05/31 02:11:35;;;;;;;4.95;2.97;;;9.10;99.90;;;;;;5048338;28;20050;-79
2023/05/31 02:14:01;;;;;;;5.95;3.50;;;9.10;99.90;;;;;;5029169;28;20046;-80
2023/05/31 02:16:26;;;;;;;6.68;3.70;;;9.00;99.90;;;;;;5048683;28;20041;-79
2023/05/31 02:18:52;;;;;;;7.65;4.03;;;8.90;99.90;;;;;;5032299;28;20194;-80
2023/05/31 02:21:17;;;;;;;7.38;4.28;;;8.80;99.90;;;;;;5032097;28;20029;-79
2023/05/31 02:23:43;;;;;;;7.28;4.18;;;8.70;99.90;;;;;;5015724;28;20040;-79
2023/05/31 02:26:08;;;;;;;6.90;3.80;;;8.80;99.90;;;;;;5031596;28;20083;-79
2023/05/31 02:28:34;;;;;;;5.43;3.47;;;8.80;99.90;;;;;;5032004;28;20060;-79
2023/05/31 02:31:00;;;;;;;4.80;3.03;;;8.80;99.90;;;;;;5031510;28;20107;-80
2023/05/31 02:33:27;;;;;;;5.60;3.13;;;8.80;99.90;;;;;;5048438;28;20492;-80
2023/05/31 02:35:53;;;;;;;7.40;3.90;;;8.80;99.90;;;;;;5032504;28;20121;-81
2023/05/31 02:38:20;;;;;;;6.40;3.78;;;8.80;99.90;;;;;;5032069;28;20048;-80
2023/05/31 02:40:45;;;;;;;5.50;3.47;;;8.70;99.90;;;;;;5031645;28;20037;-80
2023/05/31 02:43:11;;;;;;;6.85;3.38;;;8.70;99.90;;;;;;5032088;28;20327;-80
2023/05/31 02:45:37;;;;;;;5.43;3.67;;;8.60;99.90;;;;;;5032249;28;20042;-80
2023/05/31 02:48:05;;;;;;;6.10;3.75;;;8.60;99.90;;;;;;5032332;28;20037;-80
2023/05/31 02:50:31;;;;;;;4.95;3.50;;;8.60;99.90;;;;;;5031718;28;20129;-80
2023/05/31 02:52:56;;;;;;;8.07;3.45;;;8.60;99.90;;;;;;5031596;28;20041;-80
2023/05/31 02:55:22;;;;;;;5.68;3.33;;;8.70;99.90;;;;;;5048581;28;20044;-79
2023/05/31 02:57:48;;;;;;;4.53;3.15;;;8.60;99.90;;;;;;5031959;28;20125;-80
2023/05/31 03:00:14;;;;;;;6.65;3.50;;;8.60;99.90;;;;;;5031393;28;20405;-80
2023/05/31 03:02:40;;;;;;;5.43;3.08;;;8.60;99.90;;;;;;5048568;28;20182;-79
2023/05/31 03:05:08;;;;;;;5.30;3.28;;;8.60;99.90;;;;;;5031636;28;20065;-79
2023/05/31 03:07:37;;;;;;;5.32;3.33;;;8.60;99.90;;;;;;5031322;28;20456;-80
2023/05/31 03:10:06;;;;;;;5.40;3.13;;;8.50;99.90;;;;;;5031379;28;20052;-80
2023/05/31 03:12:33;;;;;;;6.70;3.83;;;8.50;99.90;;;;;;5031497;28;20532;-80
2023/05/31 03:14:58;;;;;;;6.50;3.85;;;8.40;99.90;;;;;;5031527;28;20403;-79
2023/05/31 03:17:24;;;;;;;5.15;3.28;;;8.30;99.90;;;;;;5031194;28;20034;-79
2023/05/31 03:19:49;;;;;;;7.90;3.90;;;8.30;99.90;;;;;;5031114;28;20053;-79
2023/05/31 03:22:15;;;;;;;5.38;3.33;;;8.30;99.90;;;;;;5028714;28;20041;-79
2023/05/31 03:24:41;;;;;;;4.15;2.00;;;8.30;99.90;;;;;;5030822;28;20064;-80
2023/05/31 03:27:06;;;;;;;3.08;1.90;;;8.30;99.90;;;;;;5030859;28;20475;-80
2023/05/31 03:29:33;;;;;;;4.13;2.40;;;8.30;99.90;;;;;;5031116;28;20103;-79
2023/05/31 03:31:59;;;;;;;3.67;2.03;;;8.40;99.90;;;;;;5047045;28;20045;-80
2023/05/31 03:34:25;;;;;;;3.40;2.22;;;8.40;99.90;;;;;;5047454;28;20037;-80
2023/05/31 03:36:50;;;;;;;4.53;2.70;;;8.40;99.90;;;;;;5047480;28;20033;-79
2023/05/31 03:39:16;;;;;;;7.07;3.60;;;8.40;99.90;;;;;;5047743;28;20029;-80
2023/05/31 03:41:41;;;;;;;6.55;3.50;;;8.50;99.90;;;;;;5030464;28;20556;-80
2023/05/31 03:44:07;;;;;;;6.68;3.38;;;8.50;99.90;;;;;;5048134;28;20044;-80
2023/05/31 03:46:32;;;;;;;7.13;3.22;;;8.50;99.90;;;;;;5047525;28;20520;-80
2023/05/31 03:48:58;;;;;;;6.65;3.50;;;8.50;99.90;;;;;;5030914;28;20439;-79
2023/05/31 03:51:24;;;;;;;7.05;4.32;;;8.40;99.90;;;;;;5030919;28;20052;-80
2023/05/31 03:53:49;;;;;;;6.15;3.35;;;8.50;99.90;;;;;;5047260;28;20037;-80
2023/05/31 03:56:15;;;;;;;5.85;3.47;;;8.50;99.90;;;;;;5022123;28;20037;-79
2023/05/31 03:58:41;;;;;;;7.15;3.72;;;8.60;99.90;;;;;;5030899;28;20080;-80
2023/05/31 04:01:06;;;;;;;5.15;3.30;;;8.70;99.90;;;;;;5030423;28;20061;-80
2023/05/31 04:03:32;;;;;;;7.05;3.65;;;8.70;99.90;;;;;;5047210;28;20087;-80
2023/05/31 04:05:57;;;;;;;6.90;3.72;;;8.70;99.90;;;;;;5030983;28;20036;-80
2023/05/31 04:08:23;;;;;;;5.90;3.67;;;8.70;99.90;;;;;;5047526;28;20037;-80
2023/05/31 04:10:48;;;;;;;5.00;3.35;;;8.80;99.90;;;;;;5047307;28;20052;-80
2023/05/31 04:13:14;;;;;;;6.93;4.20;;;8.70;99.90;;;;;;5031295;28;20041;-81
2023/05/31 04:15:40;;;;;;;7.18;3.97;;;8.80;99.90;;;;;;5024616;28;20068;-81
2023/05/31 04:18:06;;;;;;;6.85;4.03;;;8.80;99.90;;;;;;5029203;28;20408;-79
2023/05/31 04:20:31;;;;;;;6.40;3.88;;;8.80;99.90;;;;;;5029873;28;20038;-79
2023/05/31 04:22:57;;;;;;;8.00;4.05;;;8.80;99.90;;;;;;5030368;28;20044;-79
2023/05/31 04:25:22;;;;;;;8.43;3.90;;;8.90;99.90;;;;;;5030592;28;20152;-80
2023/05/31 04:27:49;;;;;;;7.38;4.35;;;8.90;99.90;;;;;;5047612;28;20076;-79
2023/05/31 04:30:15;;;;;;;6.72;4.30;;;9.00;99.90;;;;;;5047170;28;20042;-80
2023/05/31 04:32:40;;;;;;;7.85;3.97;;;9.00;99.90;;;;;;5030781;28;20033;-80
2023/05/31 04:35:08;;;;;;;8.48;5.30;;;9.10;99.90;;;;;;5031011;28;20148;-80
2023/05/31 04:37:34;;;;;;;8.40;4.47;;;9.10;99.90;;;;;;5031019;28;20061;-80
2023/05/31 04:40:00;;;;;;;7.63;4.50;;;9.20;99.90;;;;;;5037939;28;20037;-80
2023/05/31 04:42:26;;;;;;;9.57;4.63;;;9.20;99.90;;;;;;5041064;28;20045;-80
2023/05/31 04:44:57;;;;;;;11.43;5.13;;;9.30;99.90;;;;;;5045045;28;20060;-80
2023/05/31 04:47:24;;;;;;;11.63;5.32;;;9.40;99.90;;;;;;5022384;28;20119;-79
2023/05/31 04:49:50;;;;;;;10.02;5.38;;;9.60;99.90;;;;;;5032406;28;20128;-80
2023/05/31 04:52:16;;;;;;;11.02;5.57;;;9.70;99.90;;;;;;5048386;28;20310;-80
2023/05/31 04:54:42;;;;;;;10.02;5.28;;;9.80;99.90;;;;;;5032057;28;20069;-80
2023/05/31 04:57:07;;;;;;;9.82;5.47;;;9.90;99.90;;;;;;5032274;28;20041;-80
2023/05/31 04:59:33;;;;;;;12.45;6.00;;;10.00;99.90;;;;;;5049132;28;20038;-79
2023/05/31 05:01:58;;;;;;;11.75;5.90;;;10.20;99.90;;;;;;5048282;28;20045;-79
2023/05/31 05:04:24;;;;;;;12.90;6.30;;;10.30;99.90;;;;;;5032125;28;20470;-80
2023/05/31 05:06:49;;;;;;;13.23;6.07;;;10.40;99.90;;;;;;5005098;28;20049;-80
2023/05/31 05:09:15;;;;;;;12.45;6.35;;;10.60;99.90;;;;;;5048367;28;20037;-80
2023/05/31 05:11:41;;;;;;;10.18;5.95;;;10.70;99.90;;;;;;5031987;28;20052;-80
2023/05/31 05:14:06;;;;;;;9.75;5.55;;;10.80;99.90;;;;;;5032248;28;20059;-80
2023/05/31 05:16:32;;;;;;;11.80;5.72;;;10.90;99.90;;;;;;5032386;28;20415;-80
2023/05/31 05:18:57;;;;;;;13.23;6.20;;;11.00;99.90;;;;;;5031606;28;20046;-79
2023/05/31 05:21:23;;;;;;;12.77;6.20;;;11.20;99.90;;;;;;5030915;28;20092;-80
2023/05/31 05:23:48;;;;;;;13.43;6.68;;;11.30;99.90;;;;;;5048437;28;20548;-80
2023/05/31 05:26:14;;;;;;;9.80;6.25;;;11.50;99.90;;;;;;5032133;28;20125;-80
2023/05/31 05:28:39;;;;;;;10.30;4.95;;;11.70;99.90;;;;;;5048328;28;20034;-80
2023/05/31 05:31:05;;;;;;;10.02;5.75;;;11.80;99.90;;;;;;5031185;28;20038;-80
2023/05/31 05:33:31;;;;;;;15.68;6.30;;;12.00;99.90;;;;;;5034730;28;20571;-80
2023/05/31 05:35:56;;;;;;;14.85;5.80;;;12.20;99.90;;;;;;5036064;28;20041;-80
2023/05/31 05:38:22;;;;;;;9.98;5.25;;;12.40;99.90;;;;;;5034891;28;20507;-79
2023/05/31 05:40:47;;;;;;;13.63;5.80;;;12.50;99.90;;;;;;5034731;28;20397;-80
2023/05/31 05:43:14;;;;;;;16.02;5.97;;;12.70;99.90;;;;;;5031000;28;20045;-80
2023/05/31 05:45:40;;;;;;;14.38;6.85;;;12.80;99.90;;;;;;5033743;28;20079;-80
2023/05/31 05:48:05;;;;;;;14.52;6.32;;;13.00;99.90;;;;;;5031643;28;20479;-80
2023/05/31 05:50:31;;;;;;;13.57;5.97;;;13.10;99.90;;;;;;5032154;28;20043;-80
2023/05/31 05:52:57;;;;;;;14.13;6.13;;;13.30;99.90;;;;;;5034639;28;20130;-80
2023/05/31 05:55:22;;;;;;;12.88;6.70;;;13.40;99.90;;;;;;5033508;28;20072;-80
2023/05/31 05:57:48;;;;;;;10.68;5.72;;;13.50;99.90;;;;;;5035552;28;20101;-80
2023/05/31 06:00:15;;;;;;;18.05;5.93;;;13.60;99.90;;;;;;5033527;28;20136;-80
2023/05/31 06:02:41;;;;;;;12.40;6.22;;;13.80;99.90;;;;;;5052124;28;20069;-80
2023/05/31 06:05:07;;;;;;;13.65;6.55;;;13.90;99.90;;;;;;5035711;28;20061;-80
2023/05/31 06:07:33;;;;;;;14.95;6.45;;;14.00;99.90;;;;;;5037222;28;20029;-80
2023/05/31 06:10:00;;;;;;;12.90;5.97;;;14.10;99.90;;;;;;5035256;28;20045;-80
2023/05/31 06:12:25;;;;;;;11.35;5.55;;;14.20;99.90;;;;;;5035804;28;20492;-81
2023/05/31 06:14:51;;;;;;;12.02;5.40;;;14.30;99.90;;;;;;5032809;28;20050;-80
2023/05/31 06:17:16;;;;;;;11.73;5.25;;;14.30;99.90;;;;;;5052087;28;20502;-81
2023/05/31 06:19:42;;;;;;;12.15;5.40;;;14.50;99.90;;;;;;5051966;28;20067;-81
2023/05/31 06:22:08;;;;;;;10.65;4.90;;;14.70;99.90;;;;;;5052154;28;20048;-81
2023/05/31 06:24:33;;;;;;;8.90;4.95;;;14.80;99.90;;;;;;5036419;28;20504;-81
2023/05/31 06:27:01;;;;;;;9.23;5.05;;;14.90;99.90;;;;;;5036004;28;20189;-80
2023/05/31 06:29:27;;;;;;;8.95;4.50;;;15.10;99.90;;;;;;5036548;28;20101;-81
2023/05/31 06:31:53;;;;;;;12.18;4.95;;;15.10;99.90;;;;;;5033456;28;20526;-81
2023/05/31 06:34:18;;;;;;;8.30;4.50;;;15.20;99.90;;;;;;5035353;28;20030;-81
2023/05/31 06:36:43;;;;;;;8.77;4.72;;;15.20;99.90;;;;;;5036439;28;20087;-82
2023/05/31 06:39:09;;;;;;;9.82;4.35;;;15.30;99.90;;;;;;5034351;28;20037;-81
2023/05/31 06:41:36;;;;;;;12.18;5.18;;;15.50;99.90;;;;;;5034532;28;20041;-82
2023/05/31 06:44:01;;;;;;;10.02;4.72;;;15.60;99.90;;;;;;5050880;28;20072;-80
2023/05/31 06:46:28;;;;;;;8.38;4.20;;;15.70;99.90;;;;;;5050948;28;20040;-81
2023/05/31 06:48:54;;;;;;;10.43;4.32;;;15.70;99.90;;;;;;5051591;28;20508;-83
2023/05/31 06:51:22;;;;;;;11.88;4.82;;;15.80;99.90;;;;;;5034021;28;20045;-81
2023/05/31 06:53:50;;;;;;;8.20;3.53;;;15.90;99.90;;;;;;5034207;28;20122;-81
2023/05/31 06:56:16;;;;;;;10.05;4.13;;;16.10;99.90;;;;;;5033994;28;20064;-81
2023/05/31 06:58:43;;;;;;;9.65;4.00;;;16.20;99.90;;;;;;5034954;28;20509;-80
2023/05/31 07:01:08;;;;;;;10.32;4.13;;;16.20;99.90;;;;;;5032946;28;20041;-82
2023/05/31 07:03:34;;;;;;;7.53;3.45;;;16.30;99.90;;;;;;5033267;28;20147;-81
2023/05/31 07:05:59;;;;;;;7.72;3.65;;;16.40;99.90;;;;;;5044034;28;20134;-81
2023/05/31 07:08:25;;;;;;;13.25;4.10;;;16.50;99.90;;;;;;5049210;28;20169;-81
2023/05/31 07:10:50;;;;;;;7.13;3.40;;;16.70;99.90;;;;;;5032181;28;20046;-82
2023/05/31 07:13:16;;;;;;;9.65;3.60;;;16.80;99.90;;;;;;5047077;28;20120;-82
2023/05/31 07:15:41;;;;;;;7.10;3.42;;;16.90;99.90;;;;;;5030992;28;20139;-81
2023/05/31 07:18:07;;;;;;;9.05;3.63;;;17.00;99.90;;;;;;5032092;28;20044;-81
2023/05/31 07:20:33;;;;;;;7.15;3.25;;;17.10;99.90;;;;;;5032683;28;20038;-81
2023/05/31 07:22:58;;;;;;;10.73;3.42;;;17.30;99.90;;;;;;5045178;28;20568;-81
2023/05/31 07:25:24;;;;;;;10.27;3.35;;;17.40;99.90;;;;;;5023284;28;20168;-81
2023/05/31 07:27:49;;;;;;;11.25;3.65;;;17.40;99.90;;;;;;5023349;28;20045;-82
2023/05/31 07:30:15;;;;;;;8.88;3.38;;;17.50;99.90;;;;;;5014527;28;20589;-81
2023/05/31 07:32:41;;;;;;;5.32;3.20;;;17.60;99.90;;;;;;5032205;28;20049;-81
2023/05/31 07:35:06;;;;;;;7.90;3.25;;;17.70;99.90;;;;;;5031198;28;20059;-80
2023/05/31 07:37:32;;;;;;;10.20;3.20;;;17.70;99.90;;;;;;5047802;28;20492;-81
2023/05/31 07:39:58;;;;;;;9.60;3.58;;;17.80;99.90;;;;;;5031435;28;20080;-81
2023/05/31 07:42:24;;;;;;;9.25;2.85;;;17.90;99.90;;;;;;5030927;28;20492;-82
2023/05/31 07:44:49;;;;;;;5.72;2.92;;;18.00;99.90;;;;;;5030993;28;20037;-81
2023/05/31 07:47:16;;;;;;;5.95;3.08;;;17.90;99.90;;;;;;5030931;28;20423;-81
2023/05/31 07:49:41;;;;;;;7.72;3.35;;;18.10;99.90;;;;;;5030864;28;20041;-81
2023/05/31 07:52:08;;;;;;;10.70;3.55;;;18.20;99.90;;;;;;5031030;28;20042;-80
2023/05/31 07:54:33;;;;;;;6.00;2.90;;;18.20;99.90;;;;;;5046682;28;20077;-81
2023/05/31 07:56:59;;;;;;;8.80;3.65;;;18.10;99.90;;;;;;5046111;28;20151;-81
2023/05/31 07:59:25;;;;;;;7.38;3.45;;;18.20;99.90;;;;;;5047296;28;20041;-82
2023/05/31 08:01:51;;;;;;;7.65;3.58;;;18.40;99.90;;;;;;5013537;28;20045;-81
2023/05/31 08:04:16;;;;;;;6.97;3.65;;;18.50;99.90;;;;;;5007740;28;20048;-81
2023/05/31 08:06:42;;;;;;;6.72;3.40;;;18.70;99.90;;;;;;5030610;28;20049;-82
2023/05/31 08:09:08;;;;;;;8.45;3.88;;;18.60;99.90;;;;;;5031066;28;20469;-82
2023/05/31 08:11:37;;;;;;;8.73;3.78;;;18.60;99.90;;;;;;5048095;28;20041;-82
2023/05/31 08:14:03;;;;;;;6.53;3.15;;;18.60;99.90;;;;;;5031203;28;20538;-81
2023/05/31 08:16:29;;;;;;;6.78;2.92;;;18.40;99.90;;;;;;5032245;28;20041;-80
2023/05/31 08:18:55;;;;;;;5.85;2.65;;;18.50;99.90;;;;;;5031523;28;20452;-82
2023/05/31 08:21:20;;;;;;;7.53;2.90;;;18.60;99.90;;;;;;5031436;28;20043;-81
2023/05/31 08:23:46;;;;;;;8.65;3.50;;;18.70;99.90;;;;;;5031324;28;20041;-80
2023/05/31 08:26:12;;;;;;;7.00;3.25;;;18.90;99.90;;;;;;5046357;28;20042;-82
2023/05/31 08:28:37;;;;;;;5.20;2.58;;;18.90;99.90;;;;;;5031015;28;20048;-80
2023/05/31 08:31:03;;;;;;;7.45;2.60;;;19.00;99.90;;;;;;5031171;28;20539;-81
2023/05/31 08:33:31;;;;;;;5.03;2.20;;;18.60;99.90;;;;;;5048062;28;20042;-81
2023/05/31 08:35:59;;;;;;;5.18;2.28;;;18.60;99.90;;;;;;5031807;28;20369;-81
2023/05/31 08:38:28;;;;;;;4.20;2.22;;;18.70;99.90;;;;;;5047696;28;20060;-82
2023/05/31 08:40:56;;;;;;;7.80;2.65;;;18.70;99.90;;;;;;5030647;28;20117;-82
2023/05/31 08:43:25;;;;;;;3.83;2.00;;;18.70;99.90;;;;;;5031044;28;20037;-81
2023/05/31 08:45:51;;;;;;;3.83;2.50;;;18.90;99.90;;;;;;5049094;28;20040;-81
2023/05/31 08:48:34;;;;;;;10.88;3.45;;;19.10;99.90;;;;;;5031156;28;20033;-81
2023/05/31 08:51:02;;;;;;;6.45;2.63;;;19.20;99.90;;;;;;5031431;28;20065;-81
2023/05/31 08:53:28;;;;;;;6.15;3.00;;;19.30;99.90;;;;;;5048749;28;20079;-80
2023/05/31 08:55:55;;;;;;;9.40;2.97;;;19.50;99.90;;;;;;5030720;28;20108;-81
2023/05/31 08:58:21;;;;;;;11.45;4.00;;;19.70;99.90;;;;;;5023734;28;20044;-81
2023/05/31 09:00:48;;;;;;;8.13;2.78;;;19.90;99.90;;;;;;5047386;28;20112;-80
2023/05/31 09:03:14;;;;;;;6.57;2.85;;;20.00;99.90;;;;;;5031325;28;20445;-81
2023/05/31 09:05:39;;;;;;;9.13;3.20;;;20.10;99.90;;;;;;5046621;28;20127;-79
2023/05/31 09:08:05;;;;;;;11.15;3.05;;;20.30;99.90;;;;;;5029634;28;20121;-81
2023/05/31 09:10:31;;;;;;;5.38;2.28;;;20.20;99.90;;;;;;5027363;28;20393;-80
2023/05/31 09:12:57;;;;;;;8.07;2.60;;;20.10;99.90;;;;;;5041458;28;20449;-80
2023/05/31 09:15:23;;;;;;;6.13;2.50;;;19.90;99.90;;;;;;5018505;28;20034;-78
2023/05/31 09:17:49;;;;;;;7.13;2.33;;;19.80;99.90;;;;;;5033335;28;20527;-80
2023/05/31 09:20:16;;;;;;;9.05;3.00;;;19.40;99.90;;;;;;5024169;28;20133;-79
2023/05/31 09:22:42;;;;;;;10.65;3.15;;;18.90;99.90;;;;;;5028202;28;20441;-79
2023/05/31 09:25:08;;;;;;;5.38;2.30;;;18.50;99.90;;;;;;5025677;28;20045;-80
2023/05/31 09:27:39;;;;;;;12.50;3.15;;;18.50;99.90;;;;;;5032560;28;20033;-80
2023/05/31 09:30:10;;;;;;;7.93;3.08;;;18.80;99.90;;;;;;5029597;28;20128;-80
2023/05/31 09:32:36;;;;;;;6.20;2.80;;;18.80;99.90;;;;;;5019465;28;20041;-80
2023/05/31 09:35:13;;;;;;;8.88;3.58;;;18.50;99.90;;;;;;5029707;28;20036;-80
2023/05/31 09:37:47;;;;;;;14.23;4.03;;;18.60;99.90;;;;;;5019083;28;20054;-80
2023/05/31 09:40:25;;;;;;;14.93;4.05;;;18.50;99.90;;;;;;5026459;28;20038;-81
2023/05/31 09:42:53;;;;;;;13.80;4.68;;;18.40;99.90;;;;;;5043494;28;20037;-80
2023/05/31 09:45:19;;;;;;;16.85;4.68;;;18.20;99.90;;;;;;5033473;28;20034;-80
2023/05/31 09:47:46;;;;;;;12.10;3.70;;;18.10;99.90;;;;;;5033481;28;20041;-80
2023/05/31 09:50:19;;;;;;;14.98;4.35;;;18.20;99.90;;;;;;5028325;28;20517;-79
2023/05/31 09:52:46;;;;;;;12.65;4.22;;;18.30;99.90;;;;;;5027831;28;20045;-78
2023/05/31 09:55:14;;;;;;;10.00;4.03;;;18.30;99.90;;;;;;5032466;28;20052;-81
2023/05/31 09:57:41;;;;;;;12.15;4.00;;;18.40;99.90;;;;;;5035436;28;20048;-79
2023/05/31 10:00:16;;;;;;;11.63;3.92;;;18.20;99.90;;;;;;5036785;28;20684;-80
2023/05/31 10:02:43;;;;;;;11.15;4.10;;;18.20;99.90;;;;;;5023723;28;20037;-79
2023/05/31 10:05:11;;;;;;;10.98;4.10;;;18.20;99.90;;;;;;5025831;28;20083;-80
2023/05/31 10:07:45;;;;;;;12.57;4.72;;;18.20;99.90;;;;;;5035133;28;20037;-80
2023/05/31 10:10:11;;;;;;;;;;;18.40;99.90;;;;;;5026261;28;20041;-79
2023/05/31 10:12:52;;;;;;;8.05;3.88;;;18.60;99.90;;;;;;5035639;28;19972;-81
2023/05/31 10:15:22;;;;;;;8.52;3.90;;;18.60;99.90;;;;;;5051944;28;20064;-80
2023/05/31 10:18:13;;;;;;;13.25;4.72;;;18.60;99.90;;;;;;5025281;28;20037;-83
2023/05/31 10:20:52;;;;;;;12.73;4.57;;;18.30;99.90;;;;;;5033445;28;20042;-81
2023/05/31 10:23:24;;;;;;;8.90;4.47;;;18.50;99.90;;;;;;5022046;28;20052;-80
2023/05/31 10:26:13;;;;;;;10.48;4.43;;;18.60;99.90;;;;;;5029039;28;20092;-78
2023/05/31 10:28:47;;;;;;;8.55;3.75;;;18.60;99.90;;;;;;5011465;28;20060;-80
2023/05/31 10:31:14;;;;;;;;;;;18.80;99.90;;;;;;5032503;28;20040;-81
2023/05/31 10:33:47;;;;;;;8.65;4.60;;;18.80;99.90;;;;;;5017486;28;19917;-82
2023/05/31 10:36:14;;;;;;;11.55;4.50;;;18.70;99.90;;;;;;5035537;28;20578;-79
2023/05/31 10:38:57;;;;;;;9.45;4.97;;;18.70;99.90;;;;;;5033450;28;20111;-79
2023/05/31 10:41:31;;;;;;;10.27;4.85;;;18.50;99.90;;;;;;5043805;28;20037;-81
2023/05/31 10:44:09;;;;;;;10.27;4.70;;;18.60;99.90;;;;;;5027878;28;20026;-82
2023/05/31 10:46:37;;;;;;;8.15;4.75;;;18.70;99.90;;;;;;5031934;28;20064;-82
2023/05/31 10:49:04;;;;;;;8.32;5.28;;;19.00;99.90;;;;;;5034755;28;20127;-81
2023/05/31 10:51:46;;;;;;;8.57;5.05;;;19.10;99.90;;;;;;5034406;28;20064;-81
2023/05/31 10:54:25;;;;;;;9.77;5.45;;;19.20;99.90;;;;;;5036038;28;20240;-81
2023/05/31 10:56:55;;;;;;;8.77;5.40;;;19.30;99.90;;;;;;5035635;28;20033;-77
2023/05/31 10:59:22;;;;;;;9.18;5.32;;;19.50;99.90;;;;;;5017013;28;20042;-80
2023/05/31 11:01:48;;;;;;;10.77;5.40;;;19.70;99.90;;;;;;5021538;28;20038;-82
2023/05/31 11:04:24;;;;;;;11.90;5.30;;;19.50;99.90;;;;;;5034753;28;20041;-81
2023/05/31 11:06:55;;;;;;;9.13;5.60;;;19.80;99.90;;;;;;5035123;28;20052;-82
2023/05/31 11:09:21;;;;;;;9.48;4.95;;;19.40;99.90;;;;;;5036615;28;20072;-82
2023/05/31 11:11:49;;;;;;;10.02;4.85;;;19.60;99.90;;;;;;5051198;28;20045;-80
2023/05/31 11:14:25;;;;;;;7.22;4.88;;;19.70;99.90;;;;;;5035810;28;20093;-82
2023/05/31 11:16:53;;;;;;;8.10;4.47;;;19.90;99.90;;;;;;5035831;28;20097;-82
2023/05/31 11:19:20;;;;;;;9.57;4.63;;;20.10;99.90;;;;;;5035392;28;20042;-81
2023/05/31 11:21:50;;;;;;;9.25;4.05;;;20.30;99.90;;;;;;5018009;28;20033;-82
2023/05/31 11:24:39;;;;;;;12.27;4.65;;;20.30;99.90;;;;;;5019067;28;20041;-83
2023/05/31 11:27:12;;;;;;;6.82;3.97;;;20.00;99.90;;;;;;5035376;28;20527;-82
2023/05/31 11:29:52;;;;;;;19.90;4.70;;;20.00;99.90;;;;;;5032880;28;20038;-83
2023/05/31 11:32:19;;;;;;;12.82;4.40;;;20.40;99.90;;;;;;5033799;28;20492;-82
2023/05/31 11:34:57;;;;;;;8.60;5.03;;;20.60;99.90;;;;;;5035102;28;20041;-80
2023/05/31 11:37:31;;;;;;;9.32;4.15;;;20.60;99.90;;;;;;5049994;28;20052;-82
2023/05/31 11:40:01;;;;;;;7.70;4.93;;;20.50;99.90;;;;;;5035180;28;20091;-82
2023/05/31 11:42:36;;;;;;;8.73;4.63;;;20.30;99.90;;;;;;5035973;28;20048;-81
2023/05/31 11:45:07;;;;;;;10.70;5.22;;;20.50;99.90;;;;;;5026672;28;20523;-80
2023/05/31 11:47:39;;;;;;;11.65;4.75;;;20.50;99.90;;;;;;5021062;28;20041;-81
2023/05/31 11:50:05;;;;;;;7.32;4.03;;;20.50;99.90;;;;;;5029514;28;20042;-81
2023/05/31 11:52:31;;;;;;;8.70;4.15;;;20.80;99.90;;;;;;5023670;28;20467;-79
2023/05/31 11:55:05;;;;;;;8.40;3.90;;;20.90;99.90;;;;;;5047634;28;20080;-80
2023/05/31 11:57:39;;;;;;;;;;;21.10;99.90;;;;;;5026605;28;20088;-83
2023/05/31 12:00:10;;;;;;;7.25;3.30;;;21.10;99.90;;;;;;5014983;28;19921;-81
2023/05/31 12:02:36;;;;;;;8.05;3.15;;;21.40;99.90;;;;;;5048031;28;20034;-81
2023/05/31 12:05:03;;;;;;;7.50;2.92;;;21.70;99.90;;;;;;5030601;28;20584;-81
2023/05/31 12:07:29;;;;;;;9.48;3.55;;;21.50;99.90;;;;;;5021422;28;20057;-83
2023/05/31 12:09:54;;;;;;;5.70;2.67;;;21.20;99.90;;;;;;5020436;28;20042;-81
2023/05/31 12:12:20;;;;;;;5.82;2.97;;;21.40;99.90;;;;;;5028303;28;20417;-82
2023/05/31 12:14:51;;;;;;;8.55;3.60;;;21.60;99.90;;;;;;5020527;28;20072;-82
2023/05/31 12:17:16;;;;;;;8.35;3.70;;;22.00;99.90;;;;;;5006303;28;20042;-81
2023/05/31 12:19:42;;;;;;;8.40;3.85;;;21.90;99.90;;;;;;5029167;28;20040;-81
2023/05/31 12:22:08;;;;;;;6.35;3.35;;;21.70;99.90;;;;;;5026977;28;20041;-83
2023/05/31 12:24:36;;;;;;;5.68;2.92;;;22.00;99.90;;;;;;5026588;28;20170;-83
2023/05/31 12:27:02;;;;;;;8.20;3.10;;;22.20;99.90;;;;;;5023432;28;20226;-82
2023/05/31 12:29:30;;;;;;;10.02;3.55;;;22.10;99.90;;;;;;5035441;28;20044;-82
2023/05/31 12:32:05;;;;;;;7.22;3.38;;;22.40;99.90;;;;;;5017397;28;20382;-81
2023/05/31 12:34:35;;;;;;;11.40;3.20;;;21.80;99.90;;;;;;5017611;28;20083;-82
2023/05/31 12:37:09;;;;;;;7.57;3.40;;;22.00;99.90;;;;;;5021238;28;20105;-79
2023/05/31 12:39:35;;;;;;;;;;;22.30;99.90;;;;;;5024118;28;20037;-81
2023/05/31 12:42:01;;;;;;;8.38;3.00;;;22.60;99.90;;;;;;5032722;28;19923;-80
2023/05/31 12:44:28;;;;;;;13.07;3.30;;;22.70;99.90;;;;;;5046905;28;20120;-82
2023/05/31 12:47:00;;;;;;;9.50;3.20;;;22.90;99.90;;;;;;5031459;28;20037;-81
2023/05/31 12:49:30;;;;;;;8.88;3.70;;;23.00;99.90;;;;;;5023265;28;20043;-79